Time;durP1;ratioP1;P1;durP2;ratioP2;P2;SDS_P1;SDS_P2;PMS_P1;PMS_P2;Temp;Humidity;BMP_temperature;BMP_pressure;BME280_temperature;BME280_humidity;BME280_pressure;Samples;Min_cycle;Max_cycle;Signal;HPM_P1;HPM_P2
2022/04/29 00:01:59;;;;;;;5.37;3.20;;;6.50;99.90;;;;;;5073623;28;20173;-78
2022/04/29 00:04:25;;;;;;;6.10;2.00;;;6.40;99.90;;;;;;5073215;28;20169;-78
2022/04/29 00:06:51;;;;;;;10.27;2.80;;;6.30;99.90;;;;;;5073540;28;20416;-78
2022/04/29 00:09:17;;;;;;;5.97;1.87;;;6.30;99.90;;;;;;5073561;28;20411;-78
2022/04/29 00:11:47;;;;;;;8.40;1.50;;;6.30;99.90;;;;;;5073410;28;20165;-78
2022/04/29 00:14:13;;;;;;;10.60;3.77;;;6.20;99.90;;;;;;5073329;28;20415;-79
2022/04/29 00:16:38;;;;;;;6.23;2.90;;;6.20;99.90;;;;;;5070055;28;20967;-79
2022/04/29 00:19:04;;;;;;;6.77;3.57;;;6.10;99.90;;;;;;5062694;28;20186;-79
2022/04/29 00:21:29;;;;;;;5.83;2.43;;;6.20;99.90;;;;;;5053254;28;20242;-79
2022/04/29 00:23:56;;;;;;;5.33;3.13;;;6.10;99.90;;;;;;5053273;28;20176;-79
2022/04/29 00:26:21;;;;;;;5.57;2.97;;;6.10;99.90;;;;;;5065596;28;20309;-79
2022/04/29 00:28:47;;;;;;;9.03;2.93;;;6.10;99.90;;;;;;5072669;28;20918;-79
2022/04/29 00:31:13;;;;;;;8.20;3.23;;;6.10;99.90;;;;;;5073220;28;20188;-80
2022/04/29 00:33:38;;;;;;;9.53;3.53;;;6.20;99.90;;;;;;5072763;28;20773;-79
2022/04/29 00:36:04;;;;;;;5.30;2.87;;;6.20;99.90;;;;;;5073029;28;20188;-79
2022/04/29 00:38:29;;;;;;;5.30;2.73;;;6.20;99.90;;;;;;5073028;28;20213;-79
2022/04/29 00:40:55;;;;;;;6.30;2.67;;;6.20;99.90;;;;;;5073011;28;20252;-79
2022/04/29 00:43:20;;;;;;;5.53;3.10;;;6.10;99.90;;;;;;5072996;28;20691;-79
2022/04/29 00:45:45;;;;;;;10.53;3.57;;;6.10;99.90;;;;;;5073046;28;20183;-80
2022/04/29 00:48:11;;;;;;;6.20;3.00;;;6.00;99.90;;;;;;5072394;28;20291;-80
2022/04/29 00:50:37;;;;;;;6.97;3.37;;;6.00;99.90;;;;;;5072849;28;20233;-79
2022/04/29 00:53:03;;;;;;;5.93;2.50;;;6.00;99.90;;;;;;5072909;28;20629;-79
2022/04/29 00:55:30;;;;;;;4.90;3.30;;;5.90;99.90;;;;;;5072831;28;20173;-79
2022/04/29 00:58:02;;;;;;;12.73;3.40;;;5.90;99.90;;;;;;5072726;28;20528;-80
2022/04/29 01:00:28;;;;;;;11.70;4.20;;;5.90;99.90;;;;;;5072656;28;20775;-80
2022/04/29 01:02:54;;;;;;;7.40;4.00;;;5.90;99.90;;;;;;5072385;28;20415;-79
2022/04/29 01:05:22;;;;;;;9.10;3.30;;;5.90;99.90;;;;;;5063384;28;20630;-80
2022/04/29 01:07:49;;;;;;;7.47;4.13;;;5.90;99.90;;;;;;5071149;28;20415;-79
2022/04/29 01:10:16;;;;;;;6.47;3.30;;;5.80;99.90;;;;;;5053800;28;20417;-80
2022/04/29 01:12:44;;;;;;;9.57;3.70;;;5.80;99.90;;;;;;5052672;28;20474;-79
2022/04/29 01:15:15;;;;;;;13.23;3.90;;;5.80;99.90;;;;;;5045017;28;20510;-80
2022/04/29 01:17:43;;;;;;;7.40;4.27;;;5.80;99.90;;;;;;5064315;28;20483;-79
2022/04/29 01:20:12;;;;;;;5.50;3.43;;;5.80;99.90;;;;;;5062033;28;20484;-80
2022/04/29 01:22:37;;;;;;;7.00;3.70;;;5.80;99.90;;;;;;5055354;28;20925;-79
2022/04/29 01:25:03;;;;;;;11.43;4.00;;;5.70;99.90;;;;;;5072580;28;20494;-78
2022/04/29 01:27:29;;;;;;;5.77;4.00;;;5.70;99.90;;;;;;5072507;28;20215;-79
2022/04/29 01:30:07;;;;;;;9.70;3.67;;;5.70;99.90;;;;;;5072531;28;20848;-79
2022/04/29 01:32:34;;;;;;;6.87;3.60;;;5.80;99.90;;;;;;5072478;28;20407;-78
2022/04/29 01:35:01;;;;;;;8.27;3.97;;;5.70;99.90;;;;;;5072180;28;20763;-79
2022/04/29 01:37:26;;;;;;;8.17;4.37;;;5.80;99.90;;;;;;5072427;28;20411;-79
2022/04/29 01:39:52;;;;;;;8.20;3.23;;;5.80;99.90;;;;;;5075818;28;20787;-79
2022/04/29 01:42:18;;;;;;;8.53;3.73;;;5.70;99.90;;;;;;5076288;28;20218;-79
2022/04/29 01:44:45;;;;;;;12.33;4.53;;;5.70;99.90;;;;;;5076240;28;20165;-79
2022/04/29 01:47:11;;;;;;;9.10;4.30;;;5.80;99.90;;;;;;5058225;28;20481;-79
2022/04/29 01:49:36;;;;;;;6.97;3.70;;;5.80;99.90;;;;;;5075730;28;20454;-79
2022/04/29 01:52:02;;;;;;;5.67;3.30;;;5.80;99.90;;;;;;5076032;28;20438;-79
2022/04/29 01:54:28;;;;;;;10.43;4.20;;;5.80;99.90;;;;;;5076083;28;20164;-79
2022/04/29 01:56:54;;;;;;;10.93;4.83;;;5.80;99.90;;;;;;5076078;28;20419;-78
2022/04/29 01:59:20;;;;;;;9.33;4.80;;;5.70;99.90;;;;;;5079114;28;20692;-79
2022/04/29 02:01:49;;;;;;;10.37;4.77;;;5.70;99.90;;;;;;5077732;28;20183;-79
2022/04/29 02:04:16;;;;;;;10.70;5.13;;;5.70;99.90;;;;;;5075596;28;20411;-79
2022/04/29 02:06:42;;;;;;;6.73;3.97;;;5.80;99.90;;;;;;5075735;28;20497;-79
2022/04/29 02:09:08;;;;;;;6.60;3.87;;;5.70;99.90;;;;;;5075885;28;20419;-79
2022/04/29 02:11:34;;;;;;;9.03;4.20;;;5.70;99.90;;;;;;5075751;28;20430;-79
2022/04/29 02:14:00;;;;;;;9.20;3.90;;;5.80;99.90;;;;;;5075728;28;21006;-79
2022/04/29 02:16:25;;;;;;;9.70;5.53;;;5.80;99.90;;;;;;5067429;28;20509;-80
2022/04/29 02:18:51;;;;;;;13.20;5.00;;;5.80;99.90;;;;;;5061573;28;20423;-80
2022/04/29 02:21:16;;;;;;;9.03;4.23;;;5.70;99.90;;;;;;5057199;28;20193;-80
2022/04/29 02:23:42;;;;;;;8.57;5.17;;;5.80;99.90;;;;;;5055590;28;20697;-81
2022/04/29 02:26:07;;;;;;;9.70;4.33;;;5.80;99.90;;;;;;5070830;28;20283;-80
2022/04/29 02:28:34;;;;;;;11.00;4.93;;;5.70;99.90;;;;;;5075398;28;20292;-80
2022/04/29 02:31:00;;;;;;;7.73;5.47;;;5.70;99.90;;;;;;5075310;28;20257;-80
2022/04/29 02:33:27;;;;;;;9.87;5.70;;;5.70;99.90;;;;;;5075073;28;20937;-80
2022/04/29 02:35:53;;;;;;;5.97;4.20;;;5.60;99.90;;;;;;5075382;28;20181;-79
2022/04/29 02:38:18;;;;;;;11.87;4.40;;;5.60;99.90;;;;;;5075357;28;20411;-80
2022/04/29 02:40:44;;;;;;;10.00;4.77;;;5.60;99.90;;;;;;5075288;28;20173;-80
2022/04/29 02:43:10;;;;;;;11.50;4.93;;;5.60;99.90;;;;;;5075221;28;20633;-80
2022/04/29 02:45:35;;;;;;;6.30;4.23;;;5.60;99.90;;;;;;5057215;28;20177;-80
2022/04/29 02:48:00;;;;;;;7.07;5.07;;;5.60;99.90;;;;;;5074494;28;20209;-80
2022/04/29 02:50:26;;;;;;;6.10;3.70;;;5.60;99.90;;;;;;5074217;28;20649;-80
2022/04/29 02:52:52;;;;;;;10.37;5.40;;;5.60;99.90;;;;;;5075010;28;20181;-80
2022/04/29 02:55:18;;;;;;;8.87;5.13;;;5.60;99.90;;;;;;5057101;28;20177;-80
2022/04/29 02:57:43;;;;;;;6.90;5.73;;;5.60;99.90;;;;;;5075026;28;20228;-80
2022/04/29 03:00:09;;;;;;;15.73;6.00;;;5.50;99.90;;;;;;5074823;28;20903;-81
2022/04/29 03:02:35;;;;;;;12.90;5.20;;;5.50;99.90;;;;;;5074507;28;20173;-80
2022/04/29 03:05:00;;;;;;;10.50;4.20;;;5.50;99.90;;;;;;5074854;28;20423;-80
2022/04/29 03:07:26;;;;;;;10.10;4.60;;;5.60;99.90;;;;;;5056825;28;20303;-79
2022/04/29 03:09:51;;;;;;;9.23;5.27;;;5.60;99.90;;;;;;5074687;28;20621;-79
2022/04/29 03:12:17;;;;;;;8.17;5.10;;;5.50;99.90;;;;;;5074610;28;20174;-79
2022/04/29 03:14:42;;;;;;;16.33;5.00;;;5.50;99.90;;;;;;5069438;28;20205;-80
2022/04/29 03:18:18;;;;;;;12.60;6.10;;;5.50;99.90;;;;;;5065963;28;20194;-81
2022/04/29 03:19:58;;;;;;;13.13;5.40;;;5.50;99.90;;;;;;5064995;28;20172;-81
2022/04/29 03:22:24;;;;;;;10.00;5.47;;;5.40;99.90;;;;;;5074362;28;20411;-81
2022/04/29 03:24:54;;;;;;;10.73;5.50;;;5.40;99.90;;;;;;5058041;28;20451;-81
2022/04/29 03:27:20;;;;;;;6.93;4.87;;;5.40;99.90;;;;;;5054146;28;20549;-81
2022/04/29 03:29:45;;;;;;;14.37;6.40;;;5.40;99.90;;;;;;5054270;28;20412;-81
2022/04/29 03:32:11;;;;;;;11.37;6.13;;;5.40;99.90;;;;;;5055539;28;20420;-81
2022/04/29 03:34:36;;;;;;;10.00;5.27;;;5.40;99.90;;;;;;5073860;28;20169;-80
2022/04/29 03:37:02;;;;;;;8.73;5.40;;;5.40;99.90;;;;;;5074133;28;20201;-80
2022/04/29 03:39:28;;;;;;;8.10;4.70;;;5.40;99.90;;;;;;5074221;28;20169;-80
2022/04/29 03:41:53;;;;;;;10.37;5.93;;;5.50;99.90;;;;;;5074172;28;20165;-79
2022/04/29 03:44:20;;;;;;;14.10;6.10;;;5.50;99.90;;;;;;5074028;28;20419;-80
2022/04/29 03:46:45;;;;;;;14.83;5.03;;;5.50;99.90;;;;;;5073907;28;20200;-79
2022/04/29 03:51:55;;;;;;;10.00;5.83;;;5.50;99.90;;;;;;5073878;28;20176;-79
2022/04/29 03:54:20;;;;;;;14.23;5.30;;;5.50;99.90;;;;;;5055987;28;20932;-80
2022/04/29 03:56:46;;;;;;;11.17;6.00;;;5.50;99.90;;;;;;5073763;28;20268;-80
2022/04/29 03:59:12;;;;;;;10.07;6.17;;;5.50;99.90;;;;;;5073563;28;20169;-81
2022/04/29 04:01:37;;;;;;;11.97;7.40;;;5.60;99.90;;;;;;5073720;28;20177;-78
2022/04/29 04:04:06;;;;;;;18.37;8.57;;;5.50;99.90;;;;;;5073364;28;20257;-80
2022/04/29 04:06:50;;;;;;;14.83;8.17;;;5.60;99.90;;;;;;5073437;28;20182;-80
2022/04/29 04:09:21;;;;;;;14.43;7.80;;;5.50;99.90;;;;;;5073553;28;20403;-80
2022/04/29 04:11:48;;;;;;;16.00;7.53;;;5.50;99.90;;;;;;5073517;28;20428;-80
2022/04/29 04:14:15;;;;;;;20.00;7.97;;;5.50;99.90;;;;;;5071907;28;20778;-80
2022/04/29 04:16:41;;;;;;;10.93;7.20;;;5.50;99.90;;;;;;5057033;28;20833;-80
2022/04/29 04:19:09;;;;;;;14.10;6.70;;;5.50;99.90;;;;;;5068420;28;20431;-80
2022/04/29 04:21:35;;;;;;;12.73;8.40;;;5.50;99.90;;;;;;5055346;28;20460;-79
2022/04/29 04:24:00;;;;;;;10.93;6.43;;;5.50;99.90;;;;;;5073279;28;20415;-81
2022/04/29 04:26:26;;;;;;;9.33;6.30;;;5.60;99.90;;;;;;5039778;28;20328;-80
2022/04/29 04:28:51;;;;;;;8.70;5.80;;;5.60;99.90;;;;;;5053224;28;20181;-80
2022/04/29 04:31:17;;;;;;;9.47;5.90;;;5.60;99.90;;;;;;5053205;28;20173;-80
2022/04/29 04:33:42;;;;;;;16.33;6.40;;;5.60;99.90;;;;;;5034920;28;20173;-80
2022/04/29 04:36:10;;;;;;;10.83;6.70;;;5.70;99.90;;;;;;5053105;28;20577;-81
2022/04/29 04:38:39;;;;;;;14.13;6.13;;;5.70;99.90;;;;;;5053098;28;20181;-81
2022/04/29 04:41:04;;;;;;;14.70;6.90;;;5.80;99.90;;;;;;5052964;28;20416;-81
2022/04/29 04:43:30;;;;;;;11.43;5.50;;;5.80;99.90;;;;;;5053042;28;20742;-81
2022/04/29 04:45:56;;;;;;;15.83;6.80;;;5.80;99.90;;;;;;5053053;28;20178;-81
2022/04/29 04:48:21;;;;;;;10.10;5.97;;;5.80;99.90;;;;;;5052269;28;20307;-80
2022/04/29 04:50:47;;;;;;;14.93;6.47;;;5.80;99.90;;;;;;5052971;28;20466;-81
2022/04/29 04:53:13;;;;;;;10.57;5.90;;;5.80;99.90;;;;;;5052814;28;20204;-80
2022/04/29 04:55:39;;;;;;;11.87;6.60;;;5.80;99.90;;;;;;5052912;28;20244;-80
2022/04/29 04:58:05;;;;;;;10.53;5.70;;;5.80;99.90;;;;;;5052839;28;20478;-80
2022/04/29 05:00:31;;;;;;;11.50;6.30;;;5.90;99.90;;;;;;5052697;28;20408;-81
2022/04/29 05:02:57;;;;;;;12.57;6.30;;;5.80;99.90;;;;;;5052330;28;20444;-81
2022/04/29 05:05:22;;;;;;;13.10;6.30;;;5.90;99.90;;;;;;5052819;28;20841;-81
2022/04/29 05:07:48;;;;;;;13.20;6.40;;;5.80;99.90;;;;;;5034625;28;20677;-81
2022/04/29 05:10:18;;;;;;;8.00;5.27;;;5.80;99.90;;;;;;5052751;28;20181;-81
2022/04/29 05:12:46;;;;;;;13.10;7.00;;;5.80;99.90;;;;;;5053293;28;20169;-81
2022/04/29 05:15:13;;;;;;;12.13;6.17;;;5.80;99.90;;;;;;5060829;28;20421;-81
2022/04/29 05:17:39;;;;;;;9.00;5.43;;;5.90;99.90;;;;;;5067139;28;20432;-82
2022/04/29 05:20:07;;;;;;;15.20;6.80;;;5.90;99.90;;;;;;5067710;28;20422;-82
2022/04/29 05:22:32;;;;;;;16.20;5.97;;;6.00;99.90;;;;;;5073349;28;20426;-82
2022/04/29 05:24:58;;;;;;;10.53;6.80;;;6.10;99.90;;;;;;5067022;28;20509;-83
2022/04/29 05:27:24;;;;;;;11.20;6.20;;;6.20;99.90;;;;;;5079250;28;20782;-82
2022/04/29 05:29:50;;;;;;;10.07;5.87;;;6.40;99.90;;;;;;5079317;28;20164;-81
2022/04/29 05:32:16;;;;;;;10.13;6.23;;;6.50;99.90;;;;;;5060285;28;20430;-81
2022/04/29 05:34:43;;;;;;;14.03;7.33;;;6.60;99.90;;;;;;5078040;28;20403;-81
2022/04/29 05:37:09;;;;;;;8.57;5.40;;;6.90;99.90;;;;;;5078544;28;20824;-81
2022/04/29 05:42:21;;;;;;;14.13;6.90;;;8.00;99.90;;;;;;5079181;28;20171;-81
2022/04/29 05:44:46;;;;;;;7.97;5.33;;;8.30;99.90;;;;;;5061525;28;20429;-81
2022/04/29 05:47:15;;;;;;;8.67;6.33;;;8.40;99.90;;;;;;5078483;28;20540;-83
2022/04/29 05:49:41;;;;;;;9.23;5.20;;;8.40;41.30;;;;;;5078947;28;20226;-81
2022/04/29 05:52:08;;;;;;;11.90;5.90;;;8.10;79.50;;;;;;5078725;28;20523;-80
2022/04/29 05:54:35;;;;;;;7.00;4.77;;;8.00;99.90;;;;;;5078767;28;20256;-80
2022/04/29 05:57:01;;;;;;;9.80;5.13;;;8.20;94.30;;;;;;5078794;28;20426;-80
2022/04/29 05:59:28;;;;;;;9.10;5.60;;;8.60;20.30;;;;;;5048533;28;20510;-80
2022/04/29 06:01:54;;;;;;;4.50;3.47;;;8.80;1.00;;;;;;5058758;28;20444;-79
2022/04/29 06:04:20;;;;;;;7.63;5.40;;;9.10;1.00;;;;;;5058018;28;20416;-79
2022/04/29 06:06:45;;;;;;;8.30;5.40;;;10.20;1.00;;;;;;5058588;28;20583;-79
2022/04/29 06:09:11;;;;;;;5.63;4.30;;;11.60;99.90;;;;;;5057901;28;20435;-80
2022/04/29 06:11:36;;;;;;;8.57;4.60;;;12.40;1.00;;;;;;5058590;28;20174;-80
2022/04/29 06:14:02;;;;;;;8.17;4.20;;;10.90;77.20;;;;;;5058688;28;20178;-80
2022/04/29 06:16:27;;;;;;;11.10;4.93;;;10.10;1.00;;;;;;5073576;28;20643;-80
2022/04/29 06:18:53;;;;;;;6.87;3.90;;;9.70;99.90;;;;;;5066218;28;20185;-79
2022/04/29 06:21:19;;;;;;;7.80;4.53;;;9.80;99.90;;;;;;5071139;28;20188;-80
2022/04/29 06:23:45;;;;;;;7.80;4.57;;;10.40;1.00;;;;;;5058924;28;20189;-82
2022/04/29 06:26:11;;;;;;;14.70;4.80;;;11.70;1.00;;;;;;5067920;28;20411;-83
2022/04/29 06:28:37;;;;;;;6.20;3.70;;;13.10;1.00;;;;;;5075709;28;20484;-82
2022/04/29 06:31:03;;;;;;;6.00;4.27;;;13.70;99.90;;;;;;5075833;28;20931;-81
2022/04/29 06:33:33;;;;;;;7.80;3.83;;;13.10;99.90;;;;;;5075561;28;20537;-82
2022/04/29 06:35:59;;;;;;;3.60;2.63;;;13.10;99.90;;;;;;5057714;28;20176;-82
2022/04/29 06:38:25;;;;;;;6.27;3.60;;;14.10;99.90;;;;;;5075229;28;20419;-80
2022/04/29 06:40:52;;;;;;;5.10;3.20;;;14.70;99.90;;;;;;5074659;28;20427;-80
2022/04/29 06:43:21;;;;;;;7.97;3.87;;;15.70;99.90;;;;;;5075407;28;20791;-80
2022/04/29 06:45:47;;;;;;;4.83;3.30;;;16.40;87.30;;;;;;5075312;28;20419;-81
2022/04/29 06:48:12;;;;;;;6.77;2.60;;;17.00;39.10;;;;;;5074590;28;20491;-80
2022/04/29 06:50:38;;;;;;;7.23;3.80;;;16.00;29.60;;;;;;5074956;28;20213;-81
2022/04/29 06:53:03;;;;;;;5.63;3.17;;;15.60;44.40;;;;;;5075025;28;20230;-81
2022/04/29 06:55:29;;;;;;;6.97;3.70;;;16.50;32.60;;;;;;5074927;28;20678;-83
2022/04/29 06:57:54;;;;;;;5.03;3.10;;;17.10;18.40;;;;;;5074868;28;20644;-82
2022/04/29 07:00:20;;;;;;;5.27;3.63;;;16.30;11.80;;;;;;5074821;28;20321;-82
2022/04/29 07:02:46;;;;;;;4.43;3.30;;;15.10;20.40;;;;;;5073164;28;20180;-84
2022/04/29 07:05:13;;;;;;;8.30;3.53;;;14.80;40.20;;;;;;5063050;28;21008;-81
2022/04/29 07:07:38;;;;;;;7.40;4.13;;;14.90;55.50;;;;;;5074601;28;20474;-82
2022/04/29 07:10:05;;;;;;;6.57;4.13;;;15.10;56.20;;;;;;5074729;28;20416;-82
2022/04/29 07:12:33;;;;;;;7.60;3.53;;;15.40;55.50;;;;;;5074718;28;20180;-82
2022/04/29 07:14:59;;;;;;;9.40;3.60;;;15.40;46.70;;;;;;5062730;28;20440;-82
2022/04/29 07:17:25;;;;;;;5.23;2.90;;;16.20;30.40;;;;;;5042600;28;20545;-82
2022/04/29 07:19:52;;;;;;;5.23;3.87;;;17.10;14.20;;;;;;5034720;28;20516;-82
2022/04/29 07:22:18;;;;;;;6.93;3.40;;;17.90;7.10;;;;;;5034554;28;20999;-81
2022/04/29 07:24:44;;;;;;;7.60;3.00;;;18.30;1.00;;;;;;5034522;28;20771;-79
2022/04/29 07:27:09;;;;;;;5.87;2.97;;;18.70;1.00;;;;;;5034370;28;20465;-79
2022/04/29 07:29:35;;;;;;;7.37;3.87;;;19.00;1.00;;;;;;5034469;28;20173;-79
2022/04/29 07:32:00;;;;;;;6.60;3.53;;;19.20;1.00;;;;;;5033950;28;20212;-79
2022/04/29 07:41:44;;;;;;;6.97;3.00;;;19.10;1.00;;;;;;5034372;28;20366;-82
2022/04/29 07:42:39;;;;;;;11.73;3.87;;;19.90;1.00;;;;;;5045538;28;20417;-82
2022/04/29 07:45:05;;;;;;;6.30;4.03;;;20.00;1.00;;;;;;5053983;28;20431;-82
2022/04/29 07:47:30;;;;;;;3.97;3.10;;;19.30;1.00;;;;;;5053579;28;20231;-83
2022/04/29 07:49:56;;;;;;;6.03;3.47;;;19.30;1.00;;;;;;5053758;28;20530;-82
2022/04/29 07:52:22;;;;;;;7.03;4.70;;;19.40;1.00;;;;;;5053944;28;20161;-82
2022/04/29 07:54:47;;;;;;;5.90;3.53;;;19.40;1.00;;;;;;5053917;28;20226;-83
2022/04/29 07:57:13;;;;;;;6.73;3.83;;;20.10;1.00;;;;;;5053890;28;20905;-82
2022/04/29 07:59:38;;;;;;;9.50;4.10;;;20.10;1.00;;;;;;5053841;28;20216;-82
2022/04/29 08:02:04;;;;;;;5.33;2.83;;;19.20;1.00;;;;;;5053368;28;20180;-82
2022/04/29 08:04:30;;;;;;;6.23;3.63;;;17.90;1.00;;;;;;5053661;28;20244;-83
2022/04/29 08:06:55;;;;;;;5.43;2.90;;;18.60;1.00;;;;;;5053614;28;20259;-83
2022/04/29 08:09:21;;;;;;;5.33;3.23;;;18.70;1.00;;;;;;5035685;28;20178;-83
2022/04/29 08:11:46;;;;;;;6.50;3.07;;;19.80;1.00;;;;;;5053679;28;20222;-83
2022/04/29 08:14:12;;;;;;;3.93;3.20;;;19.90;1.00;;;;;;5034928;28;20181;-83
2022/04/29 08:16:38;;;;;;;5.60;2.60;;;20.40;1.00;;;;;;5044208;28;20537;-84
2022/04/29 08:19:04;;;;;;;5.17;3.27;;;21.30;1.00;;;;;;5015769;28;20425;-84
2022/04/29 08:21:30;;;;;;;6.80;3.40;;;20.10;1.00;;;;;;5033593;28;20173;-82
2022/04/29 08:23:55;;;;;;;4.63;2.70;;;20.70;1.00;;;;;;5033612;28;20174;-82
2022/04/29 08:26:21;;;;;;;5.30;3.00;;;21.40;1.00;;;;;;5033467;28;20455;-82
2022/04/29 08:28:46;;;;;;;4.87;2.70;;;22.40;1.00;;;;;;5033382;28;20676;-81
2022/04/29 08:31:12;;;;;;;5.70;2.87;;;22.40;1.00;;;;;;5033296;28;20232;-80
2022/04/29 08:33:38;;;;;;;6.33;2.80;;;22.50;1.00;;;;;;5032929;28;20198;-80
2022/04/29 08:36:03;;;;;;;5.53;2.50;;;21.50;1.00;;;;;;5033327;28;20175;-80
2022/04/29 08:38:30;;;;;;;5.63;2.73;;;21.30;1.00;;;;;;5033268;28;20265;-80
2022/04/29 08:41:00;;;;;;;6.63;3.37;;;19.70;1.00;;;;;;5033232;28;20170;-81
2022/04/29 08:43:26;;;;;;;5.23;2.73;;;17.90;1.00;;;;;;5033064;28;20480;-81
2022/04/29 08:45:51;;;;;;;7.07;2.83;;;16.40;1.00;;;;;;5032997;28;20421;-82
2022/04/29 08:48:18;;;;;;;8.20;3.03;;;16.20;1.00;;;;;;5031723;28;20483;-79
2022/04/29 08:50:44;;;;;;;8.13;3.20;;;15.90;1.00;;;;;;5015213;28;20177;-79
2022/04/29 08:53:10;;;;;;;5.50;2.70;;;16.00;1.00;;;;;;5033057;28;20424;-79
2022/04/29 08:58:39;;;;;;;4.10;1.70;;;18.20;1.00;;;;;;5033304;28;20211;-80
2022/04/29 09:01:10;;;;;;;5.00;2.00;;;18.20;1.00;;;;;;5032892;28;20399;-80
2022/04/29 09:03:37;;;;;;;8.30;2.83;;;16.80;1.00;;;;;;5032567;28;20415;-80
2022/04/29 09:06:04;;;;;;;8.10;2.90;;;15.90;1.00;;;;;;5015028;28;20409;-83
2022/04/29 09:08:37;;;;;;;6.40;2.80;;;15.90;1.00;;;;;;5015102;28;20992;-82
2022/04/29 09:11:05;;;;;;;6.57;2.53;;;16.40;1.00;;;;;;5032783;28;20761;-82
2022/04/29 09:13:35;;;;;;;6.47;2.00;;;18.00;1.00;;;;;;5032790;28;20473;-82
2022/04/29 09:16:05;;;;;;;5.57;2.47;;;19.90;1.00;;;;;;5047603;28;20438;-81
2022/04/29 09:18:42;;;;;;;7.57;2.30;;;20.90;1.00;;;;;;5039714;28;20762;-82
2022/04/29 09:21:18;;;;;;;3.63;2.00;;;20.80;1.00;;;;;;5044406;28;20427;-82
2022/04/29 09:23:55;;;;;;;4.90;2.97;;;21.40;1.00;;;;;;5052668;28;20404;-81
2022/04/29 09:26:29;;;;;;;6.60;2.37;;;22.30;1.00;;;;;;5052572;28;20419;-81
2022/04/29 09:29:15;;;;;;;5.63;2.47;;;22.20;1.00;;;;;;5052422;28;20448;-81
2022/04/29 09:31:52;;;;;;;3.27;2.07;;;22.60;1.00;;;;;;5052267;28;20442;-81
2022/04/29 09:34:18;;;;;;;5.43;2.27;;;21.80;1.00;;;;;;5051109;28;20412;-80
2022/04/29 09:36:44;;;;;;;4.47;1.73;;;22.10;1.00;;;;;;5032449;28;20465;-81
2022/04/29 09:39:27;;;;;;;6.67;2.70;;;22.50;1.00;;;;;;5031209;28;20178;-81
2022/04/29 09:41:55;;;;;;;6.70;1.40;;;22.10;1.00;;;;;;5032622;28;20194;-81
2022/04/29 09:44:32;;;;;;;3.80;2.20;;;21.40;1.00;;;;;;5032357;28;20413;-81
2022/04/29 09:47:12;;;;;;;4.50;1.50;;;21.90;1.00;;;;;;5032153;28;20588;-81
2022/04/29 09:49:38;;;;;;;4.37;1.80;;;21.80;1.00;;;;;;5032213;28;20453;-81
2022/04/29 09:52:05;;;;;;;3.90;1.90;;;22.80;1.00;;;;;;5032348;28;20949;-81
2022/04/29 09:54:35;;;;;;;3.80;2.23;;;23.00;1.00;;;;;;5032427;28;20405;-82
2022/04/29 09:57:09;;;;;;;3.87;2.17;;;22.20;1.00;;;;;;5032369;28;20472;-80
2022/04/29 09:59:44;;;;;;;4.90;1.63;;;20.20;1.00;;;;;;5033649;28;20412;-80
2022/04/29 10:02:11;;;;;;;5.77;1.53;;;19.80;1.00;;;;;;5035803;28;20409;-80
2022/04/29 10:04:40;;;;;;;5.40;1.50;;;19.70;1.00;;;;;;5035993;28;20495;-80
2022/04/29 10:07:10;;;;;;;5.23;1.47;;;20.00;1.00;;;;;;5051127;28;20416;-79
2022/04/29 10:09:39;;;;;;;2.90;1.67;;;20.10;1.00;;;;;;5055967;28;20562;-79
2022/04/29 10:12:09;;;;;;;3.80;2.00;;;21.10;1.00;;;;;;5055776;28;20418;-79
2022/04/29 10:14:37;;;;;;;5.20;1.20;;;21.30;1.00;;;;;;5055357;28;20416;-82
2022/04/29 10:22:50;;;;;;;2.97;1.47;;;20.90;1.00;;;;;;5035982;28;20412;-81
2022/04/29 10:25:21;;;;;;;4.50;1.70;;;21.50;1.00;;;;;;5044850;28;20783;-80
2022/04/29 10:27:49;;;;;;;5.53;1.73;;;22.50;1.00;;;;;;5056513;28;20432;-81
2022/04/29 10:30:17;;;;;;;2.60;1.23;;;22.60;1.00;;;;;;5064051;28;20431;-81
2022/04/29 10:33:02;;;;;;;6.40;1.57;;;22.40;1.00;;;;;;5056062;28;20809;-79
2022/04/29 10:35:39;;;;;;;3.10;1.40;;;21.90;1.00;;;;;;5055836;28;20408;-79
2022/04/29 10:38:31;;;;;;;3.37;1.77;;;21.70;1.00;;;;;;5037491;28;21013;-79
2022/04/29 10:41:14;;;;;;;4.53;1.50;;;22.20;1.00;;;;;;5055381;28;20920;-79
2022/04/29 10:43:55;;;;;;;5.20;1.50;;;22.20;1.00;;;;;;5055295;28;20401;-79
2022/04/29 10:46:31;;;;;;;3.10;0.87;;;22.40;1.00;;;;;;5054901;28;20424;-80
2022/04/29 10:48:57;;;;;;;5.63;2.10;;;21.90;1.00;;;;;;5064988;28;20820;-78
2022/04/29 10:51:28;;;;;;;3.00;1.00;;;21.90;1.00;;;;;;5075446;28;20506;-80
2022/04/29 10:53:57;;;;;;;4.03;1.43;;;21.80;1.00;;;;;;5075271;28;20785;-79
2022/04/29 10:56:28;;;;;;;4.57;1.80;;;21.70;1.00;;;;;;5075118;28;20534;-79
2022/04/29 10:59:05;;;;;;;5.33;1.30;;;22.20;1.00;;;;;;5057252;28;20445;-79
2022/04/29 11:01:34;;;;;;;3.40;2.00;;;21.90;1.00;;;;;;5074826;28;20883;-80
2022/04/29 11:04:01;;;;;;;2.50;1.10;;;21.40;1.00;;;;;;5075123;28;20420;-79
2022/04/29 11:06:37;;;;;;;3.50;1.70;;;20.50;1.00;;;;;;5074821;28;20816;-79
2022/04/29 11:09:23;;;;;;;2.00;0.97;;;20.10;1.00;;;;;;5074710;28;20426;-79
2022/04/29 11:11:48;;;;;;;3.43;1.03;;;20.30;1.00;;;;;;5073895;28;20503;-79
2022/04/29 11:14:14;;;;;;;1.83;1.07;;;20.40;1.00;;;;;;5074630;28;20988;-79
2022/04/29 11:17:06;;;;;;;2.00;1.10;;;21.00;1.00;;;;;;5074301;28;20172;-79
2022/04/29 11:19:40;;;;;;;3.10;1.17;;;20.50;1.00;;;;;;5074524;28;20503;-79
2022/04/29 11:24:52;;;;;;;2.30;1.97;;;21.40;1.00;;;;;;5054340;28;20403;-79
2022/04/29 11:27:33;;;;;;;3.77;1.47;;;21.30;1.00;;;;;;5054056;28;20511;-79
2022/04/29 11:30:02;;;;;;;4.13;1.77;;;21.40;1.00;;;;;;5053739;28;20523;-78
2022/04/29 11:32:29;;;;;;;3.73;1.50;;;21.60;1.00;;;;;;5054800;28;20460;-79
2022/04/29 11:35:06;;;;;;;3.47;1.30;;;22.00;1.00;;;;;;5053769;28;20421;-79
2022/04/29 11:37:34;;;;;;;3.17;1.67;;;22.00;1.00;;;;;;5054906;28;20521;-79
2022/04/29 11:40:09;;;;;;;2.30;1.13;;;21.20;1.00;;;;;;5073895;28;20417;-79
2022/04/29 11:42:36;;;;;;;3.93;1.57;;;21.50;1.00;;;;;;5073112;28;20978;-79
2022/04/29 11:45:09;;;;;;;2.40;0.97;;;21.80;1.00;;;;;;5057669;28;20474;-79
2022/04/29 11:47:36;;;;;;;3.97;1.43;;;21.70;1.00;;;;;;5053637;28;20416;-79
2022/04/29 11:50:02;;;;;;;2.80;1.17;;;21.00;1.00;;;;;;5036286;28;20543;-79
2022/04/29 11:52:30;;;;;;;3.67;1.70;;;21.40;1.00;;;;;;5053961;28;20431;-79
2022/04/29 11:54:57;;;;;;;2.30;1.50;;;21.00;1.00;;;;;;5053879;28;20416;-79
2022/04/29 11:57:24;;;;;;;3.33;1.50;;;21.20;1.00;;;;;;5053784;28;20471;-79
2022/04/29 11:59:50;;;;;;;6.60;2.20;;;21.00;1.00;;;;;;5053838;28;20470;-79
2022/04/29 12:02:18;;;;;;;3.83;1.57;;;20.50;1.00;;;;;;5043492;28;20439;-79
2022/04/29 12:04:54;;;;;;;7.00;1.80;;;20.10;1.00;;;;;;5073810;28;20410;-80
2022/04/29 12:07:20;;;;;;;3.90;1.10;;;20.10;1.00;;;;;;5073611;28;20461;-79
2022/04/29 12:09:56;;;;;;;2.50;1.23;;;20.10;1.00;;;;;;5073902;28;20407;-83
2022/04/29 12:12:30;;;;;;;2.13;1.93;;;20.30;1.00;;;;;;5070688;28;20473;-78
2022/04/29 12:14:57;;;;;;;2.20;1.13;;;19.40;1.00;;;;;;5065667;28;20423;-82
2022/04/29 12:17:39;;;;;;;1.77;1.30;;;19.40;1.00;;;;;;5073325;28;20542;-81
2022/04/29 12:20:08;;;;;;;1.70;1.10;;;19.60;1.00;;;;;;5073790;28;20415;-80
2022/04/29 12:22:41;;;;;;;2.27;1.00;;;19.70;1.00;;;;;;5072857;28;20479;-80
2022/04/29 12:25:25;;;;;;;1.73;1.07;;;19.50;1.00;;;;;;5073237;28;20811;-79
2022/04/29 12:28:18;;;;;;;3.33;1.80;;;19.80;1.00;;;;;;5073096;28;20419;-79
2022/04/29 12:37:06;;;;;;;3.33;1.50;;;19.50;1.00;;;;;;5044534;28;20519;-79
2022/04/29 12:39:40;;;;;;;3.67;1.17;;;19.70;1.00;;;;;;5033134;28;20436;-79
2022/04/29 12:42:17;;;;;;;4.67;1.00;;;19.40;1.00;;;;;;5033008;28;20789;-80
2022/04/29 12:47:38;;;;;;;4.40;1.37;;;19.40;1.00;;;;;;5033019;28;20424;-80
2022/04/29 12:50:34;;;;;;;4.03;2.03;;;18.70;1.00;;;;;;5032765;28;20502;-80
2022/04/29 12:53:05;;;;;;;1.77;1.07;;;18.70;1.00;;;;;;5032911;28;20459;-80
2022/04/29 12:55:33;;;;;;;3.90;1.40;;;19.00;1.00;;;;;;5038407;28;20435;-80
2022/04/29 12:58:05;;;;;;;4.30;1.83;;;18.80;1.00;;;;;;5038665;28;20479;-80
2022/04/29 13:00:31;;;;;;;2.80;1.30;;;18.30;1.00;;;;;;5052983;28;20418;-80
2022/04/29 13:03:05;;;;;;;2.73;1.30;;;18.40;1.00;;;;;;5052710;28;20803;-80
2022/04/29 13:05:32;;;;;;;2.67;1.00;;;18.50;1.00;;;;;;5050960;28;20418;-79
2022/04/29 13:07:58;;;;;;;1.60;1.33;;;18.70;1.00;;;;;;5052094;28;20489;-80
2022/04/29 13:10:23;;;;;;;2.10;1.10;;;18.60;1.00;;;;;;5051856;28;20452;-79
2022/04/29 13:12:49;;;;;;;6.00;2.07;;;18.70;1.00;;;;;;5049014;28;20649;-79
2022/04/29 13:15:15;;;;;;;4.67;1.60;;;18.60;1.00;;;;;;5044220;28;20193;-79
2022/04/29 13:17:41;;;;;;;3.00;1.40;;;18.50;1.00;;;;;;5052013;28;20550;-78
2022/04/29 13:20:08;;;;;;;2.47;1.77;;;17.80;1.00;;;;;;5052420;28;20421;-79
2022/04/29 13:22:34;;;;;;;6.33;1.80;;;18.30;1.00;;;;;;5050894;28;20279;-79
2022/04/29 13:25:00;;;;;;;2.60;1.50;;;18.30;1.00;;;;;;5052539;28;20418;-79
2022/04/29 13:27:25;;;;;;;3.40;1.40;;;18.00;1.00;;;;;;5052523;28;20513;-79
2022/04/29 13:29:51;;;;;;;3.23;1.67;;;18.10;1.00;;;;;;5052471;28;20186;-79